sensor_id;sensor_type;location;lat;lon;timestamp;temperature;humidity
67641;SHT31;54434;50.096;20.082;2022-11-15T00:01:05;5.29;90.74
67641;SHT31;54434;50.096;20.082;2022-11-15T00:04:05;5.27;90.85
67641;SHT31;54434;50.096;20.082;2022-11-15T00:07:00;5.28;90.90
67641;SHT31;54434;50.096;20.082;2022-11-15T00:09:55;5.26;90.90
67641;SHT31;54434;50.096;20.082;2022-11-15T00:12:49;5.24;90.90
67641;SHT31;54434;50.096;20.082;2022-11-15T00:15:44;5.22;90.96
67641;SHT31;54434;50.096;20.082;2022-11-15T00:18:39;5.22;91.10
67641;SHT31;54434;50.096;20.082;2022-11-15T00:21:39;5.21;91.09
67641;SHT31;54434;50.096;20.082;2022-11-15T00:24:34;5.17;91.12
67641;SHT31;54434;50.096;20.082;2022-11-15T00:27:29;5.13;91.11
67641;SHT31;54434;50.096;20.082;2022-11-15T00:30:23;5.10;91.08
67641;SHT31;54434;50.096;20.082;2022-11-15T00:33:19;5.09;91.19
67641;SHT31;54434;50.096;20.082;2022-11-15T00:36:13;5.09;91.20
67641;SHT31;54434;50.096;20.082;2022-11-15T00:39:08;5.08;91.22
67641;SHT31;54434;50.096;20.082;2022-11-15T00:42:03;5.09;91.22
67641;SHT31;54434;50.096;20.082;2022-11-15T00:44:58;5.03;91.19
67641;SHT31;54434;50.096;20.082;2022-11-15T00:47:52;5.03;91.25
67641;SHT31;54434;50.096;20.082;2022-11-15T00:50:47;4.99;91.16
67641;SHT31;54434;50.096;20.082;2022-11-15T00:53:42;4.96;91.05
67641;SHT31;54434;50.096;20.082;2022-11-15T00:56:36;4.92;91.00
67641;SHT31;54434;50.096;20.082;2022-11-15T00:59:31;4.90;90.94
67641;SHT31;54434;50.096;20.082;2022-11-15T01:02:26;4.88;90.90
67641;SHT31;54434;50.096;20.082;2022-11-15T01:05:20;4.87;90.93
67641;SHT31;54434;50.096;20.082;2022-11-15T01:08:16;4.86;90.98
67641;SHT31;54434;50.096;20.082;2022-11-15T01:11:12;4.87;91.00
67641;SHT31;54434;50.096;20.082;2022-11-15T01:14:06;4.87;91.01
67641;SHT31;54434;50.096;20.082;2022-11-15T01:17:01;4.83;91.09
67641;SHT31;54434;50.096;20.082;2022-11-15T01:19:55;4.82;91.19
67641;SHT31;54434;50.096;20.082;2022-11-15T01:22:50;4.84;91.20
67641;SHT31;54434;50.096;20.082;2022-11-15T01:25:45;4.83;91.19
67641;SHT31;54434;50.096;20.082;2022-11-15T01:28:40;4.83;91.18
67641;SHT31;54434;50.096;20.082;2022-11-15T01:31:35;4.82;91.16
67641;SHT31;54434;50.096;20.082;2022-11-15T01:34:30;4.80;91.13
67641;SHT31;54434;50.096;20.082;2022-11-15T01:37:25;4.78;91.14
67641;SHT31;54434;50.096;20.082;2022-11-15T01:40:20;4.75;91.07
67641;SHT31;54434;50.096;20.082;2022-11-15T01:43:22;4.74;91.05
67641;SHT31;54434;50.096;20.082;2022-11-15T01:46:30;4.71;91.09
67641;SHT31;54434;50.096;20.082;2022-11-15T01:49:29;4.66;91.11
67641;SHT31;54434;50.096;20.082;2022-11-15T01:52:28;4.67;91.10
67641;SHT31;54434;50.096;20.082;2022-11-15T01:55:27;4.69;91.08
67641;SHT31;54434;50.096;20.082;2022-11-15T01:58:22;4.68;91.10
67641;SHT31;54434;50.096;20.082;2022-11-15T02:01:17;4.69;91.13
67641;SHT31;54434;50.096;20.082;2022-11-15T02:04:13;4.70;91.10
67641;SHT31;54434;50.096;20.082;2022-11-15T02:07:17;4.71;91.10
67641;SHT31;54434;50.096;20.082;2022-11-15T02:10:16;4.72;91.10
67641;SHT31;54434;50.096;20.082;2022-11-15T02:13:14;4.72;91.11
67641;SHT31;54434;50.096;20.082;2022-11-15T02:16:20;4.73;91.16
67641;SHT31;54434;50.096;20.082;2022-11-15T02:19:47;4.73;91.11
67641;SHT31;54434;50.096;20.082;2022-11-15T02:31:20;4.80;91.18
67641;SHT31;54434;50.096;20.082;2022-11-15T02:34:28;4.79;91.14
67641;SHT31;54434;50.096;20.082;2022-11-15T02:37:36;4.80;91.18
67641;SHT31;54434;50.096;20.082;2022-11-15T02:40:44;4.80;91.17
67641;SHT31;54434;50.096;20.082;2022-11-15T02:43:50;4.81;91.10
67641;SHT31;54434;50.096;20.082;2022-11-15T02:46:53;4.83;91.14
67641;SHT31;54434;50.096;20.082;2022-11-15T02:50:06;4.84;91.11
67641;SHT31;54434;50.096;20.082;2022-11-15T02:53:04;4.83;91.08
67641;SHT31;54434;50.096;20.082;2022-11-15T02:56:00;4.81;91.10
67641;SHT31;54434;50.096;20.082;2022-11-15T02:59:04;4.82;91.17
67641;SHT31;54434;50.096;20.082;2022-11-15T03:02:31;4.83;91.10
67641;SHT31;54434;50.096;20.082;2022-11-15T03:05:43;4.83;91.17
67641;SHT31;54434;50.096;20.082;2022-11-15T03:08:51;4.84;91.15
67641;SHT31;54434;50.096;20.082;2022-11-15T03:11:59;4.81;91.10
67641;SHT31;54434;50.096;20.082;2022-11-15T03:15:07;4.83;91.13
67641;SHT31;54434;50.096;20.082;2022-11-15T03:18:14;4.79;91.09
67641;SHT31;54434;50.096;20.082;2022-11-15T03:21:18;4.81;91.07
67641;SHT31;54434;50.096;20.082;2022-11-15T03:24:15;4.82;91.08
67641;SHT31;54434;50.096;20.082;2022-11-15T03:27:17;4.83;91.08
67641;SHT31;54434;50.096;20.082;2022-11-15T03:30:18;4.84;91.06
67641;SHT31;54434;50.096;20.082;2022-11-15T03:33:13;4.83;91.06
67641;SHT31;54434;50.096;20.082;2022-11-15T03:36:08;4.83;91.04
67641;SHT31;54434;50.096;20.082;2022-11-15T03:39:06;4.84;91.03
67641;SHT31;54434;50.096;20.082;2022-11-15T03:42:15;4.82;90.90
67641;SHT31;54434;50.096;20.082;2022-11-15T03:45:22;4.80;90.92
67641;SHT31;54434;50.096;20.082;2022-11-15T03:48:24;4.79;90.90
67641;SHT31;54434;50.096;20.082;2022-11-15T03:51:26;4.79;90.94
67641;SHT31;54434;50.096;20.082;2022-11-15T03:54:21;4.77;90.92
67641;SHT31;54434;50.096;20.082;2022-11-15T03:57:16;4.78;90.97
67641;SHT31;54434;50.096;20.082;2022-11-15T04:00:12;4.77;90.96
67641;SHT31;54434;50.096;20.082;2022-11-15T04:03:07;4.77;90.93
67641;SHT31;54434;50.096;20.082;2022-11-15T04:06:02;4.80;90.90
67641;SHT31;54434;50.096;20.082;2022-11-15T04:08:57;4.80;90.90
67641;SHT31;54434;50.096;20.082;2022-11-15T04:11:52;4.78;90.86
67641;SHT31;54434;50.096;20.082;2022-11-15T04:14:46;4.78;90.90
67641;SHT31;54434;50.096;20.082;2022-11-15T04:17:57;4.79;90.89
67641;SHT31;54434;50.096;20.082;2022-11-15T04:20:52;4.80;90.90
67641;SHT31;54434;50.096;20.082;2022-11-15T04:24:05;4.78;90.90
67641;SHT31;54434;50.096;20.082;2022-11-15T04:27:04;4.75;90.90
67641;SHT31;54434;50.096;20.082;2022-11-15T04:29:59;4.78;91.26
67641;SHT31;54434;50.096;20.082;2022-11-15T04:32:54;4.79;91.07
67641;SHT31;54434;50.096;20.082;2022-11-15T04:35:49;4.77;91.06
67641;SHT31;54434;50.096;20.082;2022-11-15T04:39:02;4.78;91.06
67641;SHT31;54434;50.096;20.082;2022-11-15T04:41:56;4.78;91.01
67641;SHT31;54434;50.096;20.082;2022-11-15T04:44:51;4.77;90.92
67641;SHT31;54434;50.096;20.082;2022-11-15T04:47:46;4.74;90.91
67641;SHT31;54434;50.096;20.082;2022-11-15T04:50:40;4.71;90.83
67641;SHT31;54434;50.096;20.082;2022-11-15T04:53:35;4.67;90.82
67641;SHT31;54434;50.096;20.082;2022-11-15T04:56:30;4.59;90.57
67641;SHT31;54434;50.096;20.082;2022-11-15T04:59:25;4.54;90.51
67641;SHT31;54434;50.096;20.082;2022-11-15T05:02:20;4.49;90.50
67641;SHT31;54434;50.096;20.082;2022-11-15T05:05:34;4.44;90.50
67641;SHT31;54434;50.096;20.082;2022-11-15T05:08:29;4.42;90.45
67641;SHT31;54434;50.096;20.082;2022-11-15T05:11:23;4.41;90.41
67641;SHT31;54434;50.096;20.082;2022-11-15T05:14:18;4.38;90.46
67641;SHT31;54434;50.096;20.082;2022-11-15T05:17:12;4.39;90.48
67641;SHT31;54434;50.096;20.082;2022-11-15T05:20:09;4.38;90.47
67641;SHT31;54434;50.096;20.082;2022-11-15T05:23:05;4.36;90.42
67641;SHT31;54434;50.096;20.082;2022-11-15T05:26:01;4.35;90.52
67641;SHT31;54434;50.096;20.082;2022-11-15T05:28:59;4.35;90.58
67641;SHT31;54434;50.096;20.082;2022-11-15T05:31:53;4.30;90.52
67641;SHT31;54434;50.096;20.082;2022-11-15T05:34:48;4.27;90.42
67641;SHT31;54434;50.096;20.082;2022-11-15T05:37:43;4.21;90.40
67641;SHT31;54434;50.096;20.082;2022-11-15T05:40:38;4.14;90.24
67641;SHT31;54434;50.096;20.082;2022-11-15T05:43:34;4.12;90.27
67641;SHT31;54434;50.096;20.082;2022-11-15T05:46:31;4.09;90.20
67641;SHT31;54434;50.096;20.082;2022-11-15T05:49:31;4.05;90.08
67641;SHT31;54434;50.096;20.082;2022-11-15T05:52:30;3.98;89.99
67641;SHT31;54434;50.096;20.082;2022-11-15T05:55:28;3.94;89.99
67641;SHT31;54434;50.096;20.082;2022-11-15T05:58:23;3.84;89.97
67641;SHT31;54434;50.096;20.082;2022-11-15T06:01:18;3.82;90.15
67641;SHT31;54434;50.096;20.082;2022-11-15T06:04:12;3.80;90.16
67641;SHT31;54434;50.096;20.082;2022-11-15T06:07:07;3.75;90.29
67641;SHT31;54434;50.096;20.082;2022-11-15T06:10:02;3.76;90.44
67641;SHT31;54434;50.096;20.082;2022-11-15T06:12:59;3.75;90.42
67641;SHT31;54434;50.096;20.082;2022-11-15T06:15:58;3.74;90.40
67641;SHT31;54434;50.096;20.082;2022-11-15T06:18:53;3.71;90.34
67641;SHT31;54434;50.096;20.082;2022-11-15T06:21:48;3.70;90.43
67641;SHT31;54434;50.096;20.082;2022-11-15T06:24:43;3.67;90.41
67641;SHT31;54434;50.096;20.082;2022-11-15T06:27:38;3.70;90.50
67641;SHT31;54434;50.096;20.082;2022-11-15T06:30:33;3.69;90.42
67641;SHT31;54434;50.096;20.082;2022-11-15T06:33:27;3.66;90.43
67641;SHT31;54434;50.096;20.082;2022-11-15T06:36:23;3.68;90.53
67641;SHT31;54434;50.096;20.082;2022-11-15T06:39:19;3.68;90.42
67641;SHT31;54434;50.096;20.082;2022-11-15T06:42:13;3.67;90.34
67641;SHT31;54434;50.096;20.082;2022-11-15T06:45:09;3.69;90.40
67641;SHT31;54434;50.096;20.082;2022-11-15T06:48:05;3.71;90.35
67641;SHT31;54434;50.096;20.082;2022-11-15T06:51:00;3.68;90.25
67641;SHT31;54434;50.096;20.082;2022-11-15T06:53:58;3.68;90.30
67641;SHT31;54434;50.096;20.082;2022-11-15T06:56:53;3.65;90.21
67641;SHT31;54434;50.096;20.082;2022-11-15T06:59:47;3.65;90.34
67641;SHT31;54434;50.096;20.082;2022-11-15T07:02:42;3.70;90.46
67641;SHT31;54434;50.096;20.082;2022-11-15T07:05:37;3.78;90.51
67641;SHT31;54434;50.096;20.082;2022-11-15T07:08:31;3.83;90.50
67641;SHT31;54434;50.096;20.082;2022-11-15T07:11:26;3.84;90.40
67641;SHT31;54434;50.096;20.082;2022-11-15T07:14:20;3.88;90.29
67641;SHT31;54434;50.096;20.082;2022-11-15T07:17:15;3.92;90.24
67641;SHT31;54434;50.096;20.082;2022-11-15T07:20:11;3.93;90.22
67641;SHT31;54434;50.096;20.082;2022-11-15T07:23:07;3.96;90.13
67641;SHT31;54434;50.096;20.082;2022-11-15T07:26:02;3.98;90.06
67641;SHT31;54434;50.096;20.082;2022-11-15T07:28:58;4.01;90.09
67641;SHT31;54434;50.096;20.082;2022-11-15T07:31:53;4.04;90.09
67641;SHT31;54434;50.096;20.082;2022-11-15T07:34:49;4.13;90.12
67641;SHT31;54434;50.096;20.082;2022-11-15T07:37:43;4.20;90.05
67641;SHT31;54434;50.096;20.082;2022-11-15T07:40:46;4.22;89.93
67641;SHT31;54434;50.096;20.082;2022-11-15T07:43:52;4.29;89.84
67641;SHT31;54434;50.096;20.082;2022-11-15T07:46:47;4.31;89.73
67641;SHT31;54434;50.096;20.082;2022-11-15T07:49:42;4.37;89.75
67641;SHT31;54434;50.096;20.082;2022-11-15T07:52:37;4.41;89.30
67641;SHT31;54434;50.096;20.082;2022-11-15T07:55:32;4.36;89.13
67641;SHT31;54434;50.096;20.082;2022-11-15T07:58:27;4.41;88.93
67641;SHT31;54434;50.096;20.082;2022-11-15T08:01:21;4.45;88.87
67641;SHT31;54434;50.096;20.082;2022-11-15T08:04:16;4.46;88.64
67641;SHT31;54434;50.096;20.082;2022-11-15T08:07:11;4.50;88.69
67641;SHT31;54434;50.096;20.082;2022-11-15T08:10:07;4.56;88.75
67641;SHT31;54434;50.096;20.082;2022-11-15T08:13:05;4.62;88.72
67641;SHT31;54434;50.096;20.082;2022-11-15T08:16:02;4.71;88.91
67641;SHT31;54434;50.096;20.082;2022-11-15T08:18:58;4.79;88.86
67641;SHT31;54434;50.096;20.082;2022-11-15T08:21:52;4.90;89.12
67641;SHT31;54434;50.096;20.082;2022-11-15T08:24:47;4.99;89.01
67641;SHT31;54434;50.096;20.082;2022-11-15T08:27:41;5.00;88.44
67641;SHT31;54434;50.096;20.082;2022-11-15T08:30:38;5.04;88.44
67641;SHT31;54434;50.096;20.082;2022-11-15T08:33:35;5.17;88.59
67641;SHT31;54434;50.096;20.082;2022-11-15T08:36:30;5.27;88.58
67641;SHT31;54434;50.096;20.082;2022-11-15T08:39:35;5.39;88.55
67641;SHT31;54434;50.096;20.082;2022-11-15T08:42:30;5.39;88.18
67641;SHT31;54434;50.096;20.082;2022-11-15T08:45:25;5.45;88.30
67641;SHT31;54434;50.096;20.082;2022-11-15T08:48:19;5.53;88.15
67641;SHT31;54434;50.096;20.082;2022-11-15T08:51:14;5.58;88.01
67641;SHT31;54434;50.096;20.082;2022-11-15T08:54:09;5.65;87.81
67641;SHT31;54434;50.096;20.082;2022-11-15T08:57:04;5.62;87.36
67641;SHT31;54434;50.096;20.082;2022-11-15T08:59:59;5.67;87.51
67641;SHT31;54434;50.096;20.082;2022-11-15T09:02:55;5.69;87.23
67641;SHT31;54434;50.096;20.082;2022-11-15T09:05:50;5.71;87.12
67641;SHT31;54434;50.096;20.082;2022-11-15T09:08:49;5.85;87.31
67641;SHT31;54434;50.096;20.082;2022-11-15T09:11:44;5.99;87.58
67641;SHT31;54434;50.096;20.082;2022-11-15T09:14:39;6.09;87.21
67641;SHT31;54434;50.096;20.082;2022-11-15T09:17:33;6.20;87.09
67641;SHT31;54434;50.096;20.082;2022-11-15T09:20:28;6.30;86.78
67641;SHT31;54434;50.096;20.082;2022-11-15T09:23:26;6.36;86.39
67641;SHT31;54434;50.096;20.082;2022-11-15T09:26:21;6.47;86.44
67641;SHT31;54434;50.096;20.082;2022-11-15T09:29:16;6.61;86.35
67641;SHT31;54434;50.096;20.082;2022-11-15T09:32:11;6.69;85.86
67641;SHT31;54434;50.096;20.082;2022-11-15T09:35:07;6.82;86.02
67641;SHT31;54434;50.096;20.082;2022-11-15T09:38:03;6.98;86.23
67641;SHT31;54434;50.096;20.082;2022-11-15T09:41:20;7.07;86.05
67641;SHT31;54434;50.096;20.082;2022-11-15T09:44:39;7.12;85.92
67641;SHT31;54434;50.096;20.082;2022-11-15T09:48:06;7.22;85.82
67641;SHT31;54434;50.096;20.082;2022-11-15T09:51:41;7.27;85.63
67641;SHT31;54434;50.096;20.082;2022-11-15T09:54:28;7.32;85.47
67641;SHT31;54434;50.096;20.082;2022-11-15T09:57:30;7.35;84.84
67641;SHT31;54434;50.096;20.082;2022-11-15T10:00:18;7.35;85.05
67641;SHT31;54434;50.096;20.082;2022-11-15T10:03:18;7.35;84.82
67641;SHT31;54434;50.096;20.082;2022-11-15T10:06:03;7.35;84.96
67641;SHT31;54434;50.096;20.082;2022-11-15T10:08:57;7.41;85.13
67641;SHT31;54434;50.096;20.082;2022-11-15T10:11:40;7.43;84.97
67641;SHT31;54434;50.096;20.082;2022-11-15T10:14:18;7.44;85.12
67641;SHT31;54434;50.096;20.082;2022-11-15T10:17:27;7.54;85.39
67641;SHT31;54434;50.096;20.082;2022-11-15T10:20:37;7.74;85.52
67641;SHT31;54434;50.096;20.082;2022-11-15T10:23:22;7.90;85.37
67641;SHT31;54434;50.096;20.082;2022-11-15T10:26:00;7.98;85.07
67641;SHT31;54434;50.096;20.082;2022-11-15T10:28:43;8.10;85.00
67641;SHT31;54434;50.096;20.082;2022-11-15T10:31:26;8.17;84.37
67641;SHT31;54434;50.096;20.082;2022-11-15T10:34:12;8.21;83.73
67641;SHT31;54434;50.096;20.082;2022-11-15T10:36:57;8.17;83.59
67641;SHT31;54434;50.096;20.082;2022-11-15T10:39:34;8.24;83.63
67641;SHT31;54434;50.096;20.082;2022-11-15T10:42:27;8.30;83.29
67641;SHT31;54434;50.096;20.082;2022-11-15T10:45:06;8.30;83.13
67641;SHT31;54434;50.096;20.082;2022-11-15T10:48:24;8.39;83.27
67641;SHT31;54434;50.096;20.082;2022-11-15T10:51:01;8.46;82.77
67641;SHT31;54434;50.096;20.082;2022-11-15T10:53:57;8.51;83.12
67641;SHT31;54434;50.096;20.082;2022-11-15T10:56:41;8.53;82.94
67641;SHT31;54434;50.096;20.082;2022-11-15T10:59:25;8.58;82.90
67641;SHT31;54434;50.096;20.082;2022-11-15T11:05:30;8.67;82.64
67641;SHT31;54434;50.096;20.082;2022-11-15T11:08:23;8.68;82.54
67641;SHT31;54434;50.096;20.082;2022-11-15T11:11:01;8.73;82.35
67641;SHT31;54434;50.096;20.082;2022-11-15T11:13:39;8.71;82.04
67641;SHT31;54434;50.096;20.082;2022-11-15T11:16:43;8.73;82.11
67641;SHT31;54434;50.096;20.082;2022-11-15T11:19:48;8.75;82.15
67641;SHT31;54434;50.096;20.082;2022-11-15T11:22:41;8.74;82.18
67641;SHT31;54434;50.096;20.082;2022-11-15T11:25:39;8.75;81.71
67641;SHT31;54434;50.096;20.082;2022-11-15T11:28:30;8.77;81.95
67641;SHT31;54434;50.096;20.082;2022-11-15T11:31:23;8.81;81.89
67641;SHT31;54434;50.096;20.082;2022-11-15T11:34:15;8.85;81.72
67641;SHT31;54434;50.096;20.082;2022-11-15T11:37:05;8.91;81.68
67641;SHT31;54434;50.096;20.082;2022-11-15T11:39:59;8.98;81.81
67641;SHT31;54434;50.096;20.082;2022-11-15T11:42:51;9.03;81.68
67641;SHT31;54434;50.096;20.082;2022-11-15T11:45:57;9.12;81.52
67641;SHT31;54434;50.096;20.082;2022-11-15T11:48:52;9.19;81.39
67641;SHT31;54434;50.096;20.082;2022-11-15T11:51:35;9.25;81.37
67641;SHT31;54434;50.096;20.082;2022-11-15T11:54:22;9.31;80.94
67641;SHT31;54434;50.096;20.082;2022-11-15T11:57:15;9.38;80.84
67641;SHT31;54434;50.096;20.082;2022-11-15T12:00:12;9.45;80.58
67641;SHT31;54434;50.096;20.082;2022-11-15T12:03:02;9.49;80.61
67641;SHT31;54434;50.096;20.082;2022-11-15T12:05:46;9.56;80.62
67641;SHT31;54434;50.096;20.082;2022-11-15T12:08:31;9.62;80.51
67641;SHT31;54434;50.096;20.082;2022-11-15T12:11:20;9.67;80.12
67641;SHT31;54434;50.096;20.082;2022-11-15T12:14:12;9.70;80.07
67641;SHT31;54434;50.096;20.082;2022-11-15T12:17:01;9.75;79.95
67641;SHT31;54434;50.096;20.082;2022-11-15T12:19:38;9.81;79.74
67641;SHT31;54434;50.096;20.082;2022-11-15T12:22:18;9.87;79.60
67641;SHT31;54434;50.096;20.082;2022-11-15T12:25:00;9.92;79.53
67641;SHT31;54434;50.096;20.082;2022-11-15T12:27:42;9.96;79.46
67641;SHT31;54434;50.096;20.082;2022-11-15T12:30:24;10.00;79.33
67641;SHT31;54434;50.096;20.082;2022-11-15T12:33:34;10.06;79.02
67641;SHT31;54434;50.096;20.082;2022-11-15T12:39:16;10.16;79.03
67641;SHT31;54434;50.096;20.082;2022-11-15T12:44:59;10.22;78.72
67641;SHT31;54434;50.096;20.082;2022-11-15T12:47:57;10.24;78.76
67641;SHT31;54434;50.096;20.082;2022-11-15T12:54:59;10.16;78.91
67641;SHT31;54434;50.096;20.082;2022-11-15T12:58:28;10.11;78.72
67641;SHT31;54434;50.096;20.082;2022-11-15T13:04:50;10.08;78.70
67641;SHT31;54434;50.096;20.082;2022-11-15T13:07:59;10.05;78.66
67641;SHT31;54434;50.096;20.082;2022-11-15T13:10:35;10.04;78.69
67641;SHT31;54434;50.096;20.082;2022-11-15T13:13:11;10.02;78.76
67641;SHT31;54434;50.096;20.082;2022-11-15T13:16:20;9.97;78.70
67641;SHT31;54434;50.096;20.082;2022-11-15T13:18:57;9.94;78.76
67641;SHT31;54434;50.096;20.082;2022-11-15T13:21:39;9.93;78.90
67641;SHT31;54434;50.096;20.082;2022-11-15T13:24:41;9.91;78.89
67641;SHT31;54434;50.096;20.082;2022-11-15T13:27:18;9.87;78.85
67641;SHT31;54434;50.096;20.082;2022-11-15T13:29:55;9.86;78.97
67641;SHT31;54434;50.096;20.082;2022-11-15T13:32:31;9.85;79.16
67641;SHT31;54434;50.096;20.082;2022-11-15T13:35:17;9.85;79.29
67641;SHT31;54434;50.096;20.082;2022-11-15T13:37:57;9.86;79.29
67641;SHT31;54434;50.096;20.082;2022-11-15T13:40:39;9.85;79.39
67641;SHT31;54434;50.096;20.082;2022-11-15T13:43:27;9.86;79.37
67641;SHT31;54434;50.096;20.082;2022-11-15T13:46:09;9.85;79.44
67641;SHT31;54434;50.096;20.082;2022-11-15T13:48:46;9.85;79.34
67641;SHT31;54434;50.096;20.082;2022-11-15T13:51:35;9.82;79.36
67641;SHT31;54434;50.096;20.082;2022-11-15T13:54:20;9.79;79.42
67641;SHT31;54434;50.096;20.082;2022-11-15T13:57:02;9.79;79.53
67641;SHT31;54434;50.096;20.082;2022-11-15T13:59:48;9.79;79.86
67641;SHT31;54434;50.096;20.082;2022-11-15T14:02:29;9.79;79.82
67641;SHT31;54434;50.096;20.082;2022-11-15T14:05:17;9.80;79.81
67641;SHT31;54434;50.096;20.082;2022-11-15T14:07:56;9.79;79.60
67641;SHT31;54434;50.096;20.082;2022-11-15T14:10:35;9.81;79.67
67641;SHT31;54434;50.096;20.082;2022-11-15T14:13:27;9.81;80.21
67641;SHT31;54434;50.096;20.082;2022-11-15T14:16:19;9.76;80.71
67641;SHT31;54434;50.096;20.082;2022-11-15T14:19:09;9.71;80.98
67641;SHT31;54434;50.096;20.082;2022-11-15T14:22:17;9.60;81.30
67641;SHT31;54434;50.096;20.082;2022-11-15T14:25:14;9.57;81.53
67641;SHT31;54434;50.096;20.082;2022-11-15T14:28:28;9.52;81.75
67641;SHT31;54434;50.096;20.082;2022-11-15T14:31:12;9.46;82.01
67641;SHT31;54434;50.096;20.082;2022-11-15T14:33:53;9.41;82.13
67641;SHT31;54434;50.096;20.082;2022-11-15T14:36:29;9.37;82.20
67641;SHT31;54434;50.096;20.082;2022-11-15T14:39:05;9.34;82.37
67641;SHT31;54434;50.096;20.082;2022-11-15T14:41:41;9.27;82.44
67641;SHT31;54434;50.096;20.082;2022-11-15T14:44:17;9.21;82.73
67641;SHT31;54434;50.096;20.082;2022-11-15T14:46:53;9.17;82.78
67641;SHT31;54434;50.096;20.082;2022-11-15T14:49:29;9.11;82.76
67641;SHT31;54434;50.096;20.082;2022-11-15T14:52:22;9.07;82.87
67641;SHT31;54434;50.096;20.082;2022-11-15T14:55:11;9.09;83.23
67641;SHT31;54434;50.096;20.082;2022-11-15T14:57:54;9.39;83.83
67641;SHT31;54434;50.096;20.082;2022-11-15T15:00:31;9.58;82.79
67641;SHT31;54434;50.096;20.082;2022-11-15T15:03:09;9.79;82.38
67641;SHT31;54434;50.096;20.082;2022-11-15T15:05:45;9.71;81.62
67641;SHT31;54434;50.096;20.082;2022-11-15T15:08:21;9.55;81.82
67641;SHT31;54434;50.096;20.082;2022-11-15T15:10:58;9.42;81.90
67641;SHT31;54434;50.096;20.082;2022-11-15T15:13:34;9.29;82.05
67641;SHT31;54434;50.096;20.082;2022-11-15T15:16:10;9.18;82.23
67641;SHT31;54434;50.096;20.082;2022-11-15T15:18:46;9.11;82.43
67641;SHT31;54434;50.096;20.082;2022-11-15T15:21:23;9.04;82.56
67641;SHT31;54434;50.096;20.082;2022-11-15T15:24:09;9.02;82.60
67641;SHT31;54434;50.096;20.082;2022-11-15T15:26:49;8.96;82.72
67641;SHT31;54434;50.096;20.082;2022-11-15T15:29:25;8.91;82.86
67641;SHT31;54434;50.096;20.082;2022-11-15T15:32:00;8.85;83.02
67641;SHT31;54434;50.096;20.082;2022-11-15T15:34:37;8.73;83.29
67641;SHT31;54434;50.096;20.082;2022-11-15T15:37:21;8.65;83.60
67641;SHT31;54434;50.096;20.082;2022-11-15T15:39:58;8.64;83.62
67641;SHT31;54434;50.096;20.082;2022-11-15T15:42:34;8.58;83.70
67641;SHT31;54434;50.096;20.082;2022-11-15T15:45:11;8.54;83.72
67641;SHT31;54434;50.096;20.082;2022-11-15T15:47:48;8.51;83.79
67641;SHT31;54434;50.096;20.082;2022-11-15T15:50:27;8.45;83.86
67641;SHT31;54434;50.096;20.082;2022-11-15T15:53:05;8.36;84.06
67641;SHT31;54434;50.096;20.082;2022-11-15T15:55:42;8.32;84.19
67641;SHT31;54434;50.096;20.082;2022-11-15T15:58:18;8.27;84.28
67641;SHT31;54434;50.096;20.082;2022-11-15T16:00:54;8.26;84.35
67641;SHT31;54434;50.096;20.082;2022-11-15T16:03:30;8.23;84.37
67641;SHT31;54434;50.096;20.082;2022-11-15T16:06:26;8.21;84.50
67641;SHT31;54434;50.096;20.082;2022-11-15T16:09:13;8.20;84.62
67641;SHT31;54434;50.096;20.082;2022-11-15T16:12:11;8.22;84.60
67641;SHT31;54434;50.096;20.082;2022-11-15T16:14:47;8.19;84.67
67641;SHT31;54434;50.096;20.082;2022-11-15T16:17:25;8.16;84.70
67641;SHT31;54434;50.096;20.082;2022-11-15T16:20:06;8.15;84.78
67641;SHT31;54434;50.096;20.082;2022-11-15T16:23:12;8.15;84.82
67641;SHT31;54434;50.096;20.082;2022-11-15T16:25:52;8.12;84.91
67641;SHT31;54434;50.096;20.082;2022-11-15T16:28:30;8.14;84.93
67641;SHT31;54434;50.096;20.082;2022-11-15T16:31:09;8.15;84.90
67641;SHT31;54434;50.096;20.082;2022-11-15T16:33:49;8.15;84.91
67641;SHT31;54434;50.096;20.082;2022-11-15T16:36:25;8.15;84.85
67641;SHT31;54434;50.096;20.082;2022-11-15T16:39:08;8.16;84.82
67641;SHT31;54434;50.096;20.082;2022-11-15T16:41:49;8.17;84.80
67641;SHT31;54434;50.096;20.082;2022-11-15T16:44:26;8.16;85.04
67641;SHT31;54434;50.096;20.082;2022-11-15T16:47:03;8.17;85.04
67641;SHT31;54434;50.096;20.082;2022-11-15T16:49:44;8.19;85.15
67641;SHT31;54434;50.096;20.082;2022-11-15T16:52:20;8.18;85.06
67641;SHT31;54434;50.096;20.082;2022-11-15T16:54:57;8.17;85.07
67641;SHT31;54434;50.096;20.082;2022-11-15T16:57:32;8.17;85.08
67641;SHT31;54434;50.096;20.082;2022-11-15T17:00:12;8.17;85.14
67641;SHT31;54434;50.096;20.082;2022-11-15T17:02:51;8.16;85.24
67641;SHT31;54434;50.096;20.082;2022-11-15T17:05:27;8.14;85.30
67641;SHT31;54434;50.096;20.082;2022-11-15T17:08:03;8.14;85.30
67641;SHT31;54434;50.096;20.082;2022-11-15T17:10:42;8.15;85.34
67641;SHT31;54434;50.096;20.082;2022-11-15T17:13:18;8.15;85.37
67641;SHT31;54434;50.096;20.082;2022-11-15T17:16:05;8.15;85.33
67641;SHT31;54434;50.096;20.082;2022-11-15T17:18:49;8.14;85.40
67641;SHT31;54434;50.096;20.082;2022-11-15T17:21:25;8.12;85.45
67641;SHT31;54434;50.096;20.082;2022-11-15T17:24:04;8.13;85.54
67641;SHT31;54434;50.096;20.082;2022-11-15T17:26:40;8.14;85.50
67641;SHT31;54434;50.096;20.082;2022-11-15T17:29:17;8.13;85.49
67641;SHT31;54434;50.096;20.082;2022-11-15T17:31:53;8.13;85.50
67641;SHT31;54434;50.096;20.082;2022-11-15T17:34:30;8.12;85.57
67641;SHT31;54434;50.096;20.082;2022-11-15T17:37:06;8.11;85.63
67641;SHT31;54434;50.096;20.082;2022-11-15T17:39:42;8.09;85.70
67641;SHT31;54434;50.096;20.082;2022-11-15T17:42:18;8.08;85.69
67641;SHT31;54434;50.096;20.082;2022-11-15T17:44:54;8.08;85.70
67641;SHT31;54434;50.096;20.082;2022-11-15T17:47:37;8.07;85.71
67641;SHT31;54434;50.096;20.082;2022-11-15T17:50:13;8.07;85.72
67641;SHT31;54434;50.096;20.082;2022-11-15T17:52:49;8.05;85.76
67641;SHT31;54434;50.096;20.082;2022-11-15T17:55:25;8.05;85.80
67641;SHT31;54434;50.096;20.082;2022-11-15T17:58:01;8.04;85.90
67641;SHT31;54434;50.096;20.082;2022-11-15T18:00:37;8.04;85.99
67641;SHT31;54434;50.096;20.082;2022-11-15T18:03:13;8.03;86.00
67641;SHT31;54434;50.096;20.082;2022-11-15T18:05:49;8.02;85.99
67641;SHT31;54434;50.096;20.082;2022-11-15T18:08:26;8.03;86.07
67641;SHT31;54434;50.096;20.082;2022-11-15T18:11:06;8.03;86.09
67641;SHT31;54434;50.096;20.082;2022-11-15T18:13:45;8.04;86.09
67641;SHT31;54434;50.096;20.082;2022-11-15T18:16:25;8.05;86.07
67641;SHT31;54434;50.096;20.082;2022-11-15T18:19:04;8.04;86.06
67641;SHT31;54434;50.096;20.082;2022-11-15T18:21:44;8.04;86.10
67641;SHT31;54434;50.096;20.082;2022-11-15T18:24:30;8.05;86.10
67641;SHT31;54434;50.096;20.082;2022-11-15T18:27:08;8.05;86.10